Dundee, Oregon
Current Conditions -  °F | °C
As of 2:48 PM on Wednesday 22 Oct 2014 (Local Time) from KMMV Reporting Station
Moderate Rain Moderate Rain  
Wind Chill: 56°   Ceiling: 2300
Heat Index: 56°   Visibility: 1.7mi
Dew Point: 55°   Wind: 3mph
Humidity: 97%   Direction: 270°W
Pressure: 29.72"   Gusts: NA
Location:  45.28°N, 123.01°W
Report Text: KMMV 222148Z AUTO 27003KT 1 3/4SM RA BR SCT016 OVC023 13/13 A2972 RMK AO2 SLP064 P0026 T01330128
Loading
Personal Weather Stations






























Interactive Weather Map New forecast layout! Learn more

10-Day Weather Forecast

Advertisements
Track Severe Weather on mobile